Columbus (CMH/KCMH)

Map

Destinations

Information

Location
Columbus, OH
Local Time
15:53 / 3:53 pm
GMT Time
19:53 / 7:53 pm
Gates
B11
No FAA reported delays
METAR KCMH 281951Z 00000KT 10SM SCT038 BKN042 OVC150 21/09 A2999 RMK AO2 SLP153 T02110089
TAF KCMH 281744Z 2818/2918 14008KT P6SM BKN120 FM290000 12005KT P6SM VCTS BKN060CB FM290300 12007KT 5SM -SHRA BR OVC050 FM291000 23005KT 5SM -SHRA BR OVC015 FM291400 17007KT P6SM OVC025